Ledgewood, New Jersey
Current Conditions -  °F | °C
As of 10:45 AM on Friday 21 Nov 2014 (Local Time) from KMMU Reporting Station
Few Clouds Few Clouds  
Wind Chill: 19°   Ceiling: Unl
Heat Index: 32°   Visibility: 10mi
Dew Point:   Wind: 22mph
Humidity: 38%   Direction: 310°NW
Pressure: 30.3"   Gusts: 30mph
Location:  40.88°N, 74.66°W
Report Text: KMMU 211545Z 31019G26KT 10SM FEW050 00/M13 A3030
Loading
Personal Weather Stations






























Interactive Weather Map New forecast layout! Learn more

10-Day Weather Forecast

Advertisements
Track Severe Weather on mobile